Time;durP1;ratioP1;P1;durP2;ratioP2;P2;SDS_P1;SDS_P2;PMS_P1;PMS_P2;Temp;Humidity;BMP_temperature;BMP_pressure;BME280_temperature;BME280_humidity;BME280_pressure;Samples;Min_cycle;Max_cycle;Signal;HPM_P1;HPM_P2
2022/12/08 00:01:43;;;;;;;5.28;0.30;;;0.70;99.90;;;;;;5069860;28;20044;-46
2022/12/08 00:04:09;;;;;;;5.38;0.40;;;0.80;99.90;;;;;;5069592;28;20799;-44
2022/12/08 00:09:24;;;;;;;4.47;0.20;;;0.70;99.90;;;;;;5069443;28;20520;-46
2022/12/08 00:11:57;;;;;;;3.58;0.30;;;0.80;99.90;;;;;;5069690;28;20047;-46
2022/12/08 00:14:34;;;;;;;3.72;0.20;;;0.90;99.90;;;;;;5069975;28;20070;-44
2022/12/08 00:17:02;;;;;;;3.05;0.47;;;0.90;99.90;;;;;;5069801;28;20127;-44
2022/12/08 00:19:28;;;;;;;6.13;0.40;;;0.90;99.90;;;;;;5069569;28;20063;-43
2022/12/08 00:21:54;;;;;;;3.35;0.40;;;1.00;99.90;;;;;;5069760;28;20044;-46
2022/12/08 00:24:22;;;;;;;3.67;0.30;;;0.90;99.90;;;;;;5069111;28;20042;-44
2022/12/08 00:26:48;;;;;;;7.25;0.40;;;1.00;99.90;;;;;;5069001;28;20509;-44
2022/12/08 00:29:14;;;;;;;5.63;0.70;;;0.90;99.90;;;;;;5069188;28;20374;-45
2022/12/08 00:31:40;;;;;;;12.02;1.85;;;1.00;99.90;;;;;;5068945;28;20047;-45
2022/12/08 00:34:06;;;;;;;2.78;0.30;;;1.10;99.90;;;;;;5068331;28;20048;-43
2022/12/08 00:36:32;;;;;;;3.72;0.35;;;1.00;99.90;;;;;;5069171;28;20487;-44
2022/12/08 00:38:58;;;;;;;3.00;0.38;;;1.10;99.90;;;;;;5068951;28;20033;-44
2022/12/08 00:44:13;;;;;;;4.63;0.52;;;1.10;99.90;;;;;;5074339;28;20048;-56
2022/12/08 00:46:39;;;;;;;3.47;0.40;;;1.10;99.90;;;;;;5074418;28;20037;-56
2022/12/08 00:49:06;;;;;;;4.50;0.90;;;1.10;99.90;;;;;;5074360;28;20094;-56
2022/12/08 00:51:32;;;;;;;5.97;0.40;;;1.20;99.90;;;;;;5074491;28;20051;-57
2022/12/08 00:53:58;;;;;;;7.95;1.15;;;1.40;99.90;;;;;;5074277;28;20078;-56
2022/12/08 00:56:25;;;;;;;7.35;0.80;;;1.40;99.90;;;;;;5074652;28;20036;-57
2022/12/08 00:58:50;;;;;;;5.05;0.70;;;1.60;99.90;;;;;;5074577;28;20033;-57
2022/12/08 01:01:16;;;;;;;5.05;0.70;;;1.70;99.90;;;;;;5074979;28;20067;-57
2022/12/08 01:03:42;;;;;;;4.07;1.10;;;1.80;99.90;;;;;;5074510;28;20036;-57
2022/12/08 01:06:08;;;;;;;11.27;0.57;;;1.80;99.90;;;;;;5074213;28;20036;-57
2022/12/08 01:08:38;;;;;;;7.57;1.27;;;1.80;99.90;;;;;;5074685;28;20046;-57
2022/12/08 01:11:06;;;;;;;9.85;1.75;;;1.90;99.90;;;;;;5074233;28;20040;-57
2022/12/08 01:13:31;;;;;;;10.40;0.75;;;1.90;99.90;;;;;;5074503;28;20040;-57
2022/12/08 01:15:57;;;;;;;5.30;1.15;;;2.00;99.90;;;;;;5074131;28;20101;-57
2022/12/08 01:18:23;;;;;;;5.00;1.10;;;2.00;99.90;;;;;;5074145;28;20115;-57
2022/12/08 01:20:48;;;;;;;3.28;0.70;;;2.00;99.90;;;;;;5074273;28;20078;-57
2022/12/08 01:23:14;;;;;;;5.03;1.00;;;2.00;99.90;;;;;;5074435;28;20127;-57
2022/12/08 01:25:40;;;;;;;5.85;1.00;;;2.00;99.90;;;;;;5074024;28;20041;-57
2022/12/08 01:28:05;;;;;;;4.38;1.17;;;2.10;99.90;;;;;;5074601;28;20041;-57
2022/12/08 01:30:31;;;;;;;4.30;1.40;;;1.90;99.90;;;;;;5074129;28;20090;-56
2022/12/08 01:32:57;;;;;;;7.13;1.58;;;1.90;99.90;;;;;;5074060;28;20437;-57
2022/12/08 01:35:23;;;;;;;8.07;1.48;;;1.90;99.90;;;;;;5072356;28;20548;-57
2022/12/08 01:37:49;;;;;;;7.50;1.33;;;1.90;99.90;;;;;;5073432;28;20040;-57
2022/12/08 01:40:15;;;;;;;3.78;0.80;;;1.90;99.90;;;;;;5074057;28;20484;-57
2022/12/08 01:42:41;;;;;;;4.55;0.98;;;1.80;99.90;;;;;;5073615;28;20052;-57
2022/12/08 01:45:24;;;;;;;8.57;1.17;;;1.80;99.90;;;;;;5073396;28;20045;-57
2022/12/08 01:47:55;;;;;;;4.68;1.33;;;1.80;99.90;;;;;;5072711;28;20048;-57
2022/12/08 01:50:21;;;;;;;4.97;1.13;;;1.70;99.90;;;;;;5073121;28;20044;-57
2022/12/08 01:53:13;;;;;;;6.60;1.30;;;1.50;99.90;;;;;;5071200;28;20383;-57
2022/12/08 01:55:45;;;;;;;6.93;1.30;;;1.50;99.90;;;;;;5070385;28;20044;-57
2022/12/08 01:58:20;;;;;;;5.90;1.20;;;1.50;99.90;;;;;;5072803;28;20075;-57
2022/12/08 02:00:47;;;;;;;4.63;0.88;;;1.50;99.90;;;;;;5072599;28;20551;-57
2022/12/08 02:03:25;;;;;;;7.47;1.05;;;1.50;99.90;;;;;;5073256;28;20055;-57
2022/12/08 02:05:51;;;;;;;7.82;1.25;;;1.50;99.90;;;;;;5072489;28;20080;-57
2022/12/08 02:08:18;;;;;;;5.25;1.27;;;1.50;99.90;;;;;;5072581;28;20428;-57
2022/12/08 02:10:47;;;;;;;4.68;1.42;;;1.60;99.90;;;;;;5072518;28;20494;-57
2022/12/08 02:13:16;;;;;;;7.82;1.50;;;1.50;99.90;;;;;;5072687;28;20052;-57
2022/12/08 02:16:05;;;;;;;3.63;1.35;;;1.60;99.90;;;;;;5087990;28;20463;-57
2022/12/08 02:18:55;;;;;;;3.05;0.88;;;1.60;99.90;;;;;;5072813;28;20036;-57
2022/12/08 02:21:28;;;;;;;5.80;1.77;;;1.60;99.90;;;;;;5073423;28;20090;-57
2022/12/08 02:24:18;;;;;;;3.50;1.02;;;1.70;99.90;;;;;;5072185;28;20486;-57
2022/12/08 02:26:46;;;;;;;5.13;1.20;;;1.60;99.90;;;;;;5072179;28;20090;-61
2022/12/08 02:29:33;;;;;;;7.07;1.50;;;1.60;99.90;;;;;;5073010;28;20033;-60
2022/12/08 02:32:32;;;;;;;3.78;1.25;;;1.60;99.90;;;;;;5073162;28;20059;-57
2022/12/08 02:35:07;;;;;;;4.65;1.75;;;1.60;99.90;;;;;;5072657;28;20056;-57
2022/12/08 02:37:39;;;;;;;4.35;1.23;;;1.70;99.90;;;;;;5072572;28;20051;-57
2022/12/08 02:40:32;;;;;;;4.03;1.70;;;1.70;99.90;;;;;;5072473;28;20116;-57
2022/12/08 02:43:25;;;;;;;7.85;1.35;;;1.60;99.90;;;;;;5072528;28;20117;-57
2022/12/08 02:45:54;;;;;;;;;;;1.70;99.90;;;;;;5070068;28;20512;-57
2022/12/08 02:48:20;;;;;;;4.80;1.00;;;1.60;99.90;;;;;;5072280;28;19916;-56
2022/12/08 02:50:46;;;;;;;6.40;1.67;;;1.60;99.90;;;;;;5072930;28;20127;-57
2022/12/08 02:53:12;;;;;;;5.63;1.75;;;1.60;99.90;;;;;;5071937;28;20056;-57
2022/12/08 02:55:52;;;;;;;5.20;0.98;;;1.60;99.90;;;;;;5072759;28;20047;-57
2022/12/08 02:58:41;;;;;;;9.43;1.10;;;1.50;99.90;;;;;;5071807;28;20493;-57
2022/12/08 03:01:25;;;;;;;5.25;1.00;;;1.50;99.90;;;;;;5071966;28;20040;-57
2022/12/08 03:04:21;;;;;;;7.47;0.68;;;1.50;99.90;;;;;;5072806;28;20198;-57
2022/12/08 03:07:02;;;;;;;4.25;0.70;;;1.50;99.90;;;;;;5072089;28;20050;-57
2022/12/08 03:10:00;;;;;;;6.28;0.70;;;1.70;99.90;;;;;;5071925;28;20045;-57
2022/12/08 03:12:46;;;;;;;4.53;0.50;;;2.00;99.90;;;;;;5059992;28;20139;-57
2022/12/08 03:15:17;;;;;;;2.67;0.40;;;1.70;99.90;;;;;;5072960;28;20044;-57
2022/12/08 03:17:47;;;;;;;4.43;0.40;;;2.10;99.90;;;;;;5074809;28;20076;-57
2022/12/08 03:20:18;;;;;;;3.53;0.50;;;1.70;99.90;;;;;;5076743;28;20044;-57
2022/12/08 03:22:46;;;;;;;8.23;0.63;;;1.80;99.90;;;;;;5076433;28;20040;-57
2022/12/08 03:25:15;;;;;;;6.18;0.70;;;1.80;99.90;;;;;;5076434;28;20358;-57
2022/12/08 03:27:41;;;;;;;5.40;0.77;;;1.80;99.90;;;;;;5076195;28;20131;-56
2022/12/08 03:30:08;;;;;;;2.90;0.60;;;1.80;99.90;;;;;;5076107;28;20048;-57
2022/12/08 03:32:40;;;;;;;4.53;0.98;;;1.80;99.90;;;;;;5076529;28;20086;-56
2022/12/08 03:35:10;;;;;;;6.53;0.95;;;1.80;99.90;;;;;;5075869;28;20049;-57
2022/12/08 03:37:39;;;;;;;4.85;0.73;;;1.80;99.90;;;;;;5076257;28;20052;-56
2022/12/08 03:40:08;;;;;;;7.63;0.70;;;1.90;99.90;;;;;;5076241;28;20032;-57
2022/12/08 03:42:33;;;;;;;6.60;0.90;;;1.80;99.90;;;;;;5076045;28;20080;-57
2022/12/08 03:44:59;;;;;;;4.00;0.70;;;1.80;99.90;;;;;;5075833;28;20091;-57
2022/12/08 03:47:25;;;;;;;4.13;0.60;;;1.70;99.90;;;;;;5075745;28;20049;-57
2022/12/08 03:49:50;;;;;;;3.65;0.70;;;1.70;99.90;;;;;;5075426;28;20049;-57
2022/12/08 03:52:16;;;;;;;7.55;0.73;;;1.60;99.90;;;;;;5075720;28;20086;-57
2022/12/08 03:54:42;;;;;;;4.10;0.47;;;1.70;99.90;;;;;;5075968;28;20037;-57
2022/12/08 03:57:07;;;;;;;5.10;0.50;;;1.80;99.90;;;;;;5075702;28;20119;-57
2022/12/08 03:59:33;;;;;;;3.38;0.40;;;1.70;99.90;;;;;;5075131;28;20040;-57
2022/12/08 04:01:59;;;;;;;3.83;0.63;;;1.70;99.90;;;;;;5075477;28;20040;-57
2022/12/08 04:04:24;;;;;;;3.05;0.55;;;1.70;99.90;;;;;;5075532;28;20055;-57
2022/12/08 04:06:50;;;;;;;3.70;0.57;;;1.70;99.90;;;;;;5075029;28;20047;-57
2022/12/08 04:09:16;;;;;;;1.98;0.50;;;1.70;99.90;;;;;;5075170;28;20131;-57
2022/12/08 04:11:42;;;;;;;4.90;0.60;;;1.60;99.90;;;;;;5074912;28;20041;-57
2022/12/08 04:14:07;;;;;;;2.78;0.85;;;1.50;99.90;;;;;;5075098;28;20081;-57
2022/12/08 04:16:33;;;;;;;4.55;0.43;;;1.50;99.90;;;;;;5075411;28;20033;-57
2022/12/08 04:18:59;;;;;;;4.22;0.43;;;1.50;99.90;;;;;;5074918;28;20041;-57
2022/12/08 04:21:24;;;;;;;3.78;0.63;;;1.40;99.90;;;;;;5074834;28;20037;-57
2022/12/08 04:23:50;;;;;;;7.10;0.82;;;1.40;99.90;;;;;;5074568;28;20055;-57
2022/12/08 04:26:16;;;;;;;2.83;0.30;;;1.40;99.90;;;;;;5074309;28;20041;-57
2022/12/08 04:28:42;;;;;;;1.92;0.50;;;1.40;99.90;;;;;;5074646;28;20471;-57
2022/12/08 04:31:08;;;;;;;1.95;0.20;;;1.40;99.90;;;;;;5075213;28;20041;-57
2022/12/08 04:33:34;;;;;;;3.13;0.20;;;1.40;99.90;;;;;;5075195;28;20037;-56
2022/12/08 04:36:00;;;;;;;4.25;0.40;;;1.50;99.90;;;;;;5074724;28;20426;-57
2022/12/08 04:38:26;;;;;;;4.60;0.20;;;1.40;99.90;;;;;;5075202;28;20040;-57
2022/12/08 04:40:52;;;;;;;1.35;0.20;;;1.40;99.90;;;;;;5074694;28;20036;-57
2022/12/08 04:43:18;;;;;;;4.20;0.70;;;1.40;99.90;;;;;;5075104;28;20040;-57
2022/12/08 04:45:43;;;;;;;3.80;0.47;;;1.40;99.90;;;;;;5074772;28;20047;-57
2022/12/08 04:48:12;;;;;;;3.00;0.40;;;1.40;99.90;;;;;;5074338;28;20424;-56
2022/12/08 04:50:40;;;;;;;2.08;0.35;;;1.40;99.90;;;;;;5074411;28;20044;-57
2022/12/08 04:53:06;;;;;;;4.40;0.47;;;1.40;99.90;;;;;;5074551;28;20420;-56
2022/12/08 04:55:32;;;;;;;4.03;0.50;;;1.40;99.90;;;;;;5074584;28;20098;-56
2022/12/08 04:57:57;;;;;;;3.58;0.57;;;1.40;99.90;;;;;;5074140;28;20766;-57
2022/12/08 05:00:23;;;;;;;1.65;0.40;;;1.50;99.90;;;;;;5074022;28;20032;-57
2022/12/08 05:02:49;;;;;;;3.08;0.45;;;1.50;99.90;;;;;;5073896;28;20045;-57
2022/12/08 05:05:14;;;;;;;3.67;0.40;;;1.50;99.90;;;;;;5074489;28;20048;-57
2022/12/08 05:07:40;;;;;;;3.78;0.30;;;1.40;99.90;;;;;;5073603;28;20041;-57
2022/12/08 05:10:07;;;;;;;3.67;0.47;;;1.50;99.90;;;;;;5073458;28;20123;-57
2022/12/08 05:12:32;;;;;;;4.15;0.40;;;1.50;99.90;;;;;;5073477;28;20048;-57
2022/12/08 05:14:58;;;;;;;4.38;0.50;;;1.50;99.90;;;;;;5073772;28;20045;-57
2022/12/08 05:17:24;;;;;;;4.32;0.30;;;1.60;99.90;;;;;;5073555;28;20040;-57
2022/12/08 05:19:49;;;;;;;3.20;0.52;;;1.50;99.90;;;;;;5073908;28;20123;-57
2022/12/08 05:22:15;;;;;;;2.92;0.30;;;1.60;99.90;;;;;;5073540;28;20072;-57
2022/12/08 05:24:41;;;;;;;1.77;0.20;;;1.50;99.90;;;;;;5073333;28;20076;-57
2022/12/08 05:27:08;;;;;;;1.27;0.13;;;1.50;99.90;;;;;;5073247;28;20501;-56
2022/12/08 05:29:34;;;;;;;3.22;0.20;;;1.50;99.90;;;;;;5074398;28;20043;-57
2022/12/08 05:31:59;;;;;;;3.80;0.20;;;1.50;99.90;;;;;;5074126;28;20414;-56
2022/12/08 05:34:25;;;;;;;3.17;0.20;;;1.50;99.90;;;;;;5073324;28;20055;-56
2022/12/08 05:36:51;;;;;;;1.83;0.20;;;1.50;99.90;;;;;;5072409;28;20040;-57
2022/12/08 05:39:17;;;;;;;1.60;0.10;;;1.60;99.90;;;;;;5072514;28;20075;-57
2022/12/08 05:41:42;;;;;;;1.75;0.10;;;1.50;99.90;;;;;;5073693;28;20542;-57
2022/12/08 05:44:08;;;;;;;0.30;0.10;;;1.50;99.90;;;;;;5073902;28;20051;-57
2022/12/08 05:46:34;;;;;;;0.52;0.08;;;1.60;99.90;;;;;;5073792;28;20047;-57
2022/12/08 05:49:00;;;;;;;1.90;0.10;;;1.50;99.90;;;;;;5073078;28;20040;-57
2022/12/08 05:51:26;;;;;;;1.85;0.08;;;1.50;99.90;;;;;;5072797;28;20514;-57
2022/12/08 05:53:53;;;;;;;1.13;0.20;;;1.50;99.90;;;;;;5073020;28;20032;-58
2022/12/08 05:56:20;;;;;;;0.43;0.10;;;1.60;99.90;;;;;;5072922;28;20045;-57
2022/12/08 05:58:46;;;;;;;0.65;0.08;;;1.50;99.90;;;;;;5071896;28;20029;-57
2022/12/08 06:01:26;;;;;;;0.20;0.10;;;1.50;99.90;;;;;;5072350;28;20116;-57
2022/12/08 06:03:53;;;;;;;1.92;0.10;;;1.50;99.90;;;;;;5073242;28;20052;-57
2022/12/08 06:06:18;;;;;;;0.70;0.10;;;1.50;99.90;;;;;;5072838;28;20048;-57
2022/12/08 06:08:44;;;;;;;1.95;0.10;;;1.40;99.90;;;;;;5072876;28;20040;-57
2022/12/08 06:11:17;;;;;;;1.63;0.10;;;1.50;99.90;;;;;;5071084;28;20167;-57
2022/12/08 06:13:43;;;;;;;5.22;0.30;;;1.50;99.90;;;;;;5072072;28;20068;-57
2022/12/08 06:16:08;;;;;;;2.13;0.10;;;1.50;99.90;;;;;;5072170;28;20122;-57
2022/12/08 06:18:34;;;;;;;1.35;0.10;;;1.50;99.90;;;;;;5071895;28;20033;-57
2022/12/08 06:21:08;;;;;;;0.30;0.10;;;1.40;99.90;;;;;;5072235;28;20044;-57
2022/12/08 06:23:34;;;;;;;0.68;0.05;;;1.40;99.90;;;;;;5071839;28;20562;-56
2022/12/08 06:26:01;;;;;;;2.58;0.10;;;1.40;99.90;;;;;;5071604;28;20084;-57
2022/12/08 06:28:28;;;;;;;1.75;0.10;;;1.40;99.90;;;;;;5072776;28;20109;-57
2022/12/08 06:30:54;;;;;;;1.13;0.10;;;1.30;99.90;;;;;;5072844;28;20466;-56
2022/12/08 06:33:19;;;;;;;2.78;0.10;;;1.30;99.90;;;;;;5072226;28;20048;-56
2022/12/08 06:35:45;;;;;;;2.72;0.10;;;1.30;99.90;;;;;;5071521;28;20057;-57
2022/12/08 06:38:11;;;;;;;1.65;0.10;;;1.30;99.90;;;;;;5072318;28;20052;-56
2022/12/08 06:40:36;;;;;;;1.45;0.10;;;1.20;99.90;;;;;;5072048;28;20127;-57
2022/12/08 06:43:02;;;;;;;1.10;0.10;;;1.20;99.90;;;;;;5072121;28;20048;-57
2022/12/08 06:45:27;;;;;;;3.05;0.22;;;1.70;99.90;;;;;;5071880;28;20041;-56
2022/12/08 06:47:53;;;;;;;2.28;0.10;;;1.20;99.90;;;;;;5071957;28;20041;-56
2022/12/08 06:50:19;;;;;;;2.67;0.10;;;1.20;99.90;;;;;;5071921;28;20040;-56
2022/12/08 06:52:45;;;;;;;2.15;0.08;;;1.20;99.90;;;;;;5071799;28;20052;-56
2022/12/08 06:55:11;;;;;;;1.23;0.20;;;1.20;99.90;;;;;;5071905;28;20076;-56
2022/12/08 06:57:36;;;;;;;1.40;0.10;;;1.70;99.90;;;;;;5086745;28;20412;-56
2022/12/08 07:00:04;;;;;;;0.98;0.08;;;1.20;99.90;;;;;;5070956;28;20041;-57
2022/12/08 07:02:30;;;;;;;0.90;0.10;;;1.20;99.90;;;;;;5071226;28;20358;-57
2022/12/08 07:04:55;;;;;;;0.63;0.05;;;1.20;99.90;;;;;;5071507;28;20101;-56
2022/12/08 07:07:21;;;;;;;1.20;0.10;;;1.20;99.90;;;;;;5070547;28;20048;-56
2022/12/08 07:09:47;;;;;;;0.50;0.20;;;1.20;99.90;;;;;;5071108;28;20048;-56
2022/12/08 07:12:12;;;;;;;2.40;0.10;;;1.10;99.90;;;;;;5071255;28;20048;-56
2022/12/08 07:14:38;;;;;;;0.43;0.10;;;1.00;99.90;;;;;;5071429;28;20036;-56
2022/12/08 07:17:04;;;;;;;1.45;0.22;;;1.00;99.90;;;;;;5071437;28;20044;-56
2022/12/08 07:19:31;;;;;;;1.98;0.20;;;0.90;99.90;;;;;;5069723;28;20041;-57
2022/12/08 07:21:57;;;;;;;3.85;0.30;;;0.90;99.90;;;;;;5071324;28;20040;-56
2022/12/08 07:24:23;;;;;;;3.15;0.20;;;1.00;99.90;;;;;;5070275;28;20195;-56
2022/12/08 07:26:48;;;;;;;2.65;0.40;;;0.80;99.90;;;;;;5070778;28;20055;-56
2022/12/08 07:29:14;;;;;;;1.98;0.30;;;0.80;99.90;;;;;;5071989;28;20063;-57
2022/12/08 07:31:40;;;;;;;4.20;0.70;;;0.70;99.90;;;;;;5072063;28;20051;-56
2022/12/08 07:34:05;;;;;;;9.73;0.85;;;0.70;99.90;;;;;;5071203;28;20117;-56
2022/12/08 07:36:31;;;;;;;3.30;0.47;;;0.70;99.90;;;;;;5071735;28;20106;-56
2022/12/08 07:38:57;;;;;;;6.75;1.88;;;0.60;99.90;;;;;;5071840;28;20032;-56
2022/12/08 07:41:24;;;;;;;10.68;1.13;;;0.60;99.90;;;;;;5071909;28;20532;-56
2022/12/08 07:43:50;;;;;;;7.00;0.88;;;0.60;99.90;;;;;;5071588;28;20044;-56
2022/12/08 07:46:20;;;;;;;10.93;1.17;;;0.50;99.90;;;;;;5071251;28;20052;-56
2022/12/08 07:48:46;;;;;;;12.45;1.98;;;0.40;99.90;;;;;;5071395;28;20067;-56
2022/12/08 07:51:14;;;;;;;6.78;0.65;;;0.20;99.90;;;;;;5071266;28;20118;-56
2022/12/08 07:53:41;;;;;;;4.72;1.30;;;0.30;99.90;;;;;;5071443;28;20444;-56
2022/12/08 07:56:07;;;;;;;6.07;1.33;;;0.30;99.90;;;;;;5071679;28;20436;-57
2022/12/08 07:58:33;;;;;;;9.80;1.98;;;0.20;99.90;;;;;;5070876;28;20366;-56
2022/12/08 08:00:59;;;;;;;8.43;2.25;;;0.20;99.90;;;;;;5071408;28;20036;-56
2022/12/08 08:03:24;;;;;;;9.40;2.38;;;0.30;99.90;;;;;;5073091;28;20076;-57
2022/12/08 08:05:50;;;;;;;10.32;2.08;;;0.30;99.90;;;;;;5074291;28;20083;-57
2022/12/08 08:08:16;;;;;;;9.85;2.78;;;0.30;99.90;;;;;;5074198;28;20664;-56
2022/12/08 08:10:42;;;;;;;9.82;2.50;;;0.30;99.90;;;;;;5074603;28;20119;-56
2022/12/08 08:13:08;;;;;;;11.65;2.70;;;0.10;99.90;;;;;;5074495;28;20123;-56
2022/12/08 08:15:35;;;;;;;11.80;2.92;;;0.10;99.90;;;;;;5074573;28;20041;-56
2022/12/08 08:18:00;;;;;;;12.85;2.63;;;0.10;99.90;;;;;;5074503;28;20040;-56
2022/12/08 08:20:26;;;;;;;8.88;2.88;;;0.10;99.90;;;;;;5073206;28;20864;-57
2022/12/08 08:22:52;;;;;;;12.45;2.97;;;0.00;99.90;;;;;;5074559;28;20040;-56
2022/12/08 08:25:21;;;;;;;12.35;2.90;;;-0.10;99.90;;;;;;5074126;28;20463;-56
2022/12/08 08:27:47;;;;;;;12.55;3.00;;;-0.10;99.90;;;;;;5074698;28;20044;-56
2022/12/08 08:30:13;;;;;;;10.18;2.78;;;-0.20;99.90;;;;;;5075284;28;20032;-56
2022/12/08 08:32:39;;;;;;;23.08;3.83;;;-0.20;99.90;;;;;;5075006;28;20045;-56
2022/12/08 08:35:06;;;;;;;9.50;2.78;;;-0.30;99.90;;;;;;5074243;28;20062;-56
2022/12/08 08:37:31;;;;;;;18.45;4.38;;;-0.40;99.90;;;;;;5074154;28;20123;-56
2022/12/08 08:39:57;;;;;;;10.75;3.25;;;-0.50;99.90;;;;;;5074819;28;20132;-56
2022/12/08 08:42:23;;;;;;;10.27;2.70;;;-0.40;99.90;;;;;;5073944;28;20102;-56
2022/12/08 08:44:48;;;;;;;10.90;2.70;;;-0.40;99.90;;;;;;5074402;28;20490;-56
2022/12/08 08:47:14;;;;;;;8.85;2.63;;;-0.40;99.90;;;;;;5074125;28;20421;-56
2022/12/08 08:49:40;;;;;;;10.77;2.55;;;-0.30;99.90;;;;;;5074224;28;20048;-56
2022/12/08 08:52:05;;;;;;;11.85;2.88;;;-0.20;99.90;;;;;;5073690;28;20474;-56
2022/12/08 08:54:32;;;;;;;8.98;2.47;;;-0.20;99.90;;;;;;5073878;28;20037;-57
2022/12/08 08:56:58;;;;;;;8.77;2.60;;;-0.20;99.90;;;;;;5073961;28;20068;-56
2022/12/08 08:59:24;;;;;;;8.00;2.17;;;-0.20;99.90;;;;;;5072222;28;20352;-56
2022/12/08 09:01:50;;;;;;;11.73;2.60;;;-0.20;99.90;;;;;;5073379;28;20054;-57
2022/12/08 09:04:16;;;;;;;6.85;2.00;;;-0.20;99.90;;;;;;5071703;28;20739;-57
2022/12/08 09:06:44;;;;;;;12.20;3.50;;;-0.20;99.90;;;;;;5071704;28;20124;-56
2022/12/08 09:09:11;;;;;;;9.68;2.40;;;-0.20;99.90;;;;;;5072456;28;20041;-56
2022/12/08 09:11:37;;;;;;;6.68;2.45;;;-0.30;99.90;;;;;;5072817;28;20090;-56
2022/12/08 09:14:02;;;;;;;8.88;2.40;;;-0.10;99.90;;;;;;5068407;28;20076;-45
2022/12/08 09:16:28;;;;;;;12.55;2.65;;;0.00;99.90;;;;;;5029427;28;20072;-46
2022/12/08 09:18:54;;;;;;;10.00;2.72;;;0.00;99.90;;;;;;5064873;28;20086;-47
2022/12/08 09:21:24;;;;;;;9.50;2.75;;;0.20;99.90;;;;;;5066083;28;20040;-45
2022/12/08 09:23:56;;;;;;;7.70;2.85;;;0.30;99.90;;;;;;5066505;28;20036;-45
2022/12/08 09:26:23;;;;;;;11.68;3.38;;;0.60;99.90;;;;;;5081243;28;20371;-46
2022/12/08 09:28:50;;;;;;;12.48;2.95;;;0.70;99.90;;;;;;5064480;28;20048;-44
2022/12/08 09:31:18;;;;;;;10.35;2.38;;;0.90;99.90;;;;;;5064573;28;20635;-46
2022/12/08 09:33:44;;;;;;;7.80;2.80;;;0.90;99.90;;;;;;5065850;28;20595;-46
2022/12/08 09:36:10;;;;;;;10.38;2.75;;;0.90;99.90;;;;;;5066042;28;20116;-47
2022/12/08 09:38:36;;;;;;;9.43;3.03;;;0.80;99.90;;;;;;5065421;28;20040;-45
2022/12/08 09:41:12;;;;;;;9.30;3.53;;;0.90;99.90;;;;;;5065905;28;20043;-45
2022/12/08 09:43:44;;;;;;;10.65;3.17;;;0.80;99.90;;;;;;5065358;28;20075;-45
2022/12/08 09:46:16;;;;;;;8.13;2.40;;;0.70;99.90;;;;;;5063818;28;20127;-46
2022/12/08 09:48:50;;;;;;;8.07;2.88;;;0.90;99.90;;;;;;5081353;28;20158;-47
2022/12/08 09:51:16;;;;;;;10.88;3.38;;;1.00;99.90;;;;;;5066242;28;20044;-45
2022/12/08 09:53:48;;;;;;;10.27;2.92;;;1.00;99.90;;;;;;5065478;28;20475;-45
2022/12/08 09:56:21;;;;;;;7.82;3.20;;;1.30;99.90;;;;;;5065720;28;20116;-45
2022/12/08 09:58:52;;;;;;;7.90;2.90;;;1.50;99.90;;;;;;5065344;28;20048;-45
2022/12/08 10:01:20;;;;;;;9.90;3.20;;;1.70;99.90;;;;;;5065668;28;20044;-46
2022/12/08 10:03:46;;;;;;;5.72;1.90;;;3.00;99.90;;;;;;5065461;28;20048;-45
2022/12/08 10:06:32;;;;;;;9.88;3.50;;;4.40;99.90;;;;;;5065293;28;20486;-46
2022/12/08 10:09:26;;;;;;;9.15;2.83;;;2.40;99.90;;;;;;5064939;28;20051;-46
2022/12/08 10:12:16;;;;;;;8.07;2.60;;;3.50;99.90;;;;;;5065284;28;20076;-47
2022/12/08 10:14:48;;;;;;;9.40;1.90;;;2.80;99.90;;;;;;5065333;28;20052;-58
2022/12/08 10:17:36;;;;;;;9.25;2.20;;;3.00;99.90;;;;;;5044973;28;20053;-59
2022/12/08 10:20:16;;;;;;;7.18;2.00;;;3.10;99.90;;;;;;5066102;28;20799;-58
2022/12/08 10:22:44;;;;;;;6.47;2.03;;;3.10;99.90;;;;;;5066491;28;20048;-59
2022/12/08 10:25:26;;;;;;;3.47;1.23;;;3.20;99.90;;;;;;5065999;28;20067;-58
2022/12/08 10:27:53;;;;;;;9.85;3.05;;;3.20;99.90;;;;;;5067221;28;20075;-58
2022/12/08 10:30:20;;;;;;;6.50;1.15;;;3.10;99.90;;;;;;5070194;28;20055;-57
2022/12/08 10:32:49;;;;;;;6.55;1.00;;;3.10;99.90;;;;;;5063504;28;20128;-47
2022/12/08 10:35:17;;;;;;;6.47;0.98;;;3.10;99.90;;;;;;5061205;28;20183;-54
2022/12/08 10:38:05;;;;;;;6.70;1.20;;;3.20;99.90;;;;;;5062901;28;20696;-53
2022/12/08 10:40:35;;;;;;;5.57;0.70;;;3.20;99.90;;;;;;5064502;28;20115;-54
2022/12/08 10:43:04;;;;;;;5.50;0.98;;;4.40;99.90;;;;;;5062616;28;20406;-50
2022/12/08 10:45:40;;;;;;;2.80;0.85;;;3.30;99.90;;;;;;5063743;28;20064;-58
2022/12/08 10:48:18;;;;;;;5.95;0.88;;;3.20;99.90;;;;;;5079526;28;20523;-56
2022/12/08 10:50:53;;;;;;;5.57;1.00;;;3.40;99.90;;;;;;5079136;28;20044;-59
2022/12/08 10:53:31;;;;;;;6.80;1.50;;;3.30;99.90;;;;;;5080148;28;20097;-56
2022/12/08 10:56:00;;;;;;;3.42;1.33;;;3.40;99.90;;;;;;5064069;28;20033;-49
2022/12/08 10:58:29;;;;;;;4.93;1.30;;;3.30;99.90;;;;;;5063961;28;20063;-51
2022/12/08 11:01:11;;;;;;;5.38;1.48;;;3.30;99.90;;;;;;5064134;28;20040;-51
2022/12/08 11:03:45;;;;;;;7.55;1.50;;;3.20;99.90;;;;;;5064147;28;20083;-52
2022/12/08 11:06:28;;;;;;;10.20;1.42;;;3.10;99.90;;;;;;5064513;28;20174;-52
2022/12/08 11:09:05;;;;;;;5.45;1.42;;;3.00;99.90;;;;;;5045822;28;20823;-48
2022/12/08 11:11:49;;;;;;;4.82;1.40;;;2.90;99.90;;;;;;5080004;28;20121;-52
2022/12/08 11:14:26;;;;;;;4.18;1.50;;;3.00;99.90;;;;;;5064231;28;20067;-52
2022/12/08 11:17:04;;;;;;;5.30;1.75;;;3.10;99.90;;;;;;5052414;28;20448;-52
2022/12/08 11:19:30;;;;;;;8.30;1.30;;;3.30;99.90;;;;;;5063758;28;20572;-52
2022/12/08 11:21:55;;;;;;;6.22;1.27;;;3.40;99.90;;;;;;5063912;28;20097;-53
2022/12/08 11:24:27;;;;;;;4.55;1.30;;;3.50;99.90;;;;;;5062860;28;20052;-52
2022/12/08 11:27:03;;;;;;;5.67;1.50;;;3.50;99.90;;;;;;5063320;28;20079;-51
2022/12/08 11:29:32;;;;;;;7.22;1.40;;;3.50;99.90;;;;;;5064338;28;20170;-52
2022/12/08 11:32:07;;;;;;;4.68;1.77;;;3.40;99.90;;;;;;5063575;28;20533;-51
2022/12/08 11:34:50;;;;;;;7.15;1.65;;;3.30;99.90;;;;;;5063875;28;20048;-53
2022/12/08 11:37:29;;;;;;;8.00;1.52;;;3.20;99.90;;;;;;5064045;28;20037;-53
2022/12/08 11:39:58;;;;;;;7.93;1.80;;;3.20;99.90;;;;;;5067383;28;20691;-54
2022/12/08 11:42:31;;;;;;;6.85;1.70;;;3.10;99.90;;;;;;5067502;28;20048;-58
2022/12/08 11:45:00;;;;;;;4.80;1.33;;;3.30;99.90;;;;;;5082894;28;20072;-57
2022/12/08 11:47:51;;;;;;;5.30;1.27;;;3.40;99.90;;;;;;5083254;28;20052;-53
2022/12/08 11:50:24;;;;;;;8.18;2.28;;;3.40;99.90;;;;;;5067509;28;20079;-51
2022/12/08 11:52:50;;;;;;;6.40;1.33;;;3.00;99.90;;;;;;5082686;28;20083;-49
2022/12/08 11:55:30;;;;;;;5.25;1.60;;;3.00;99.90;;;;;;5082251;28;20044;-48
2022/12/08 11:58:10;;;;;;;7.93;1.20;;;3.30;99.90;;;;;;5066889;28;20379;-52
2022/12/08 12:00:35;;;;;;;6.05;1.20;;;3.30;99.90;;;;;;5066990;28;20163;-48
2022/12/08 12:03:28;;;;;;;4.85;1.17;;;3.30;99.90;;;;;;5066964;28;20123;-57
2022/12/08 12:06:07;;;;;;;5.60;1.63;;;4.10;99.90;;;;;;5064447;28;20056;-46
2022/12/08 12:08:51;;;;;;;6.30;1.40;;;3.20;99.90;;;;;;5082001;28;20060;-56
2022/12/08 12:14:58;;;;;;;4.57;1.23;;;3.20;99.90;;;;;;5065944;28;20059;-56
2022/12/08 12:17:39;;;;;;;7.05;1.63;;;3.20;99.90;;;;;;5046584;28;20072;-54
2022/12/08 12:20:15;;;;;;;2.97;0.90;;;3.10;99.90;;;;;;5066298;28;20089;-55
2022/12/08 12:22:43;;;;;;;5.95;1.00;;;3.20;99.90;;;;;;5066497;28;20066;-56
2022/12/08 12:25:22;;;;;;;3.78;1.50;;;3.20;99.90;;;;;;5082452;28;20052;-56
2022/12/08 12:27:49;;;;;;;5.28;1.27;;;3.10;99.90;;;;;;5067413;28;20058;-55
2022/12/08 12:30:25;;;;;;;5.93;1.45;;;3.90;99.90;;;;;;5066018;28;20048;-62
2022/12/08 12:33:00;;;;;;;4.35;1.67;;;3.10;99.90;;;;;;5066083;28;20481;-53
2022/12/08 12:35:34;;;;;;;8.63;1.55;;;3.20;99.90;;;;;;5066179;28;20383;-56
2022/12/08 12:41:12;;;;;;;4.70;1.35;;;3.20;99.90;;;;;;5066647;28;20078;-49
2022/12/08 12:43:38;;;;;;;5.80;1.38;;;3.20;99.90;;;;;;5067029;28;20541;-62
2022/12/08 12:46:24;;;;;;;7.13;1.80;;;4.00;99.90;;;;;;5067012;28;20540;-60
2022/12/08 12:48:51;;;;;;;6.78;1.83;;;3.40;99.90;;;;;;5044390;28;20055;-58
2022/12/08 12:51:43;;;;;;;8.23;2.05;;;4.80;99.90;;;;;;5067690;28;20123;-57
2022/12/08 12:54:28;;;;;;;6.07;2.00;;;3.70;99.90;;;;;;5081174;28;20105;-51
2022/12/08 12:56:55;;;;;;;8.15;2.58;;;4.00;99.90;;;;;;5065718;28;20901;-51
2022/12/08 12:59:34;;;;;;;7.07;2.42;;;4.50;99.90;;;;;;5064334;28;20079;-51
2022/12/08 13:02:01;;;;;;;7.32;1.90;;;3.30;99.90;;;;;;5065098;28;20148;-51
2022/12/08 13:04:35;;;;;;;6.63;1.88;;;3.10;99.90;;;;;;5065561;28;20071;-49
2022/12/08 13:07:02;;;;;;;8.85;2.20;;;3.00;99.90;;;;;;5080754;28;20557;-50
2022/12/08 13:09:34;;;;;;;3.80;1.63;;;2.80;99.90;;;;;;5066007;28;20098;-53
2022/12/08 13:12:09;;;;;;;5.50;1.88;;;3.00;99.90;;;;;;5080950;28;20052;-55
2022/12/08 13:14:47;;;;;;;7.63;2.25;;;2.90;99.90;;;;;;5064059;28;20041;-57
2022/12/08 13:17:28;;;;;;;6.68;1.90;;;2.80;99.90;;;;;;5045152;28;20075;-53
2022/12/08 13:19:57;;;;;;;7.25;2.10;;;2.70;99.90;;;;;;5065131;28;20032;-57
2022/12/08 13:22:49;;;;;;;10.40;2.03;;;2.50;99.90;;;;;;5064715;28;20049;-54